sensor_id;sensor_type;location;lat;lon;timestamp;temperature;humidity
5461;DHT22;2753;49.196;8.286;2023-07-13T00:02:16;23.10;68.30
5461;DHT22;2753;49.196;8.286;2023-07-13T00:04:42;23.00;68.00
5461;DHT22;2753;49.196;8.286;2023-07-13T00:07:08;22.90;67.80
5461;DHT22;2753;49.196;8.286;2023-07-13T00:09:34;22.90;67.60
5461;DHT22;2753;49.196;8.286;2023-07-13T00:12:00;22.90;67.60
5461;DHT22;2753;49.196;8.286;2023-07-13T00:14:28;22.90;67.60
5461;DHT22;2753;49.196;8.286;2023-07-13T00:16:55;22.90;67.50
5461;DHT22;2753;49.196;8.286;2023-07-13T00:19:21;22.90;67.60
5461;DHT22;2753;49.196;8.286;2023-07-13T00:21:46;22.80;67.60
5461;DHT22;2753;49.196;8.286;2023-07-13T00:24:15;22.80;67.70
5461;DHT22;2753;49.196;8.286;2023-07-13T00:26:42;22.80;67.70
5461;DHT22;2753;49.196;8.286;2023-07-13T00:29:11;22.70;67.70
5461;DHT22;2753;49.196;8.286;2023-07-13T00:31:37;22.70;67.70
5461;DHT22;2753;49.196;8.286;2023-07-13T00:34:03;22.70;67.40
5461;DHT22;2753;49.196;8.286;2023-07-13T00:36:30;22.60;67.40
5461;DHT22;2753;49.196;8.286;2023-07-13T00:38:56;22.60;67.60
5461;DHT22;2753;49.196;8.286;2023-07-13T00:41:22;22.50;67.90
5461;DHT22;2753;49.196;8.286;2023-07-13T00:43:48;22.50;68.10
5461;DHT22;2753;49.196;8.286;2023-07-13T00:46:26;22.50;68.20
5461;DHT22;2753;49.196;8.286;2023-07-13T00:48:54;22.40;68.10
5461;DHT22;2753;49.196;8.286;2023-07-13T00:51:27;22.50;68.30
5461;DHT22;2753;49.196;8.286;2023-07-13T00:53:56;22.50;68.30
5461;DHT22;2753;49.196;8.286;2023-07-13T00:56:23;22.50;68.60
5461;DHT22;2753;49.196;8.286;2023-07-13T00:58:49;22.80;69.10
5461;DHT22;2753;49.196;8.286;2023-07-13T01:01:15;22.40;68.70
5461;DHT22;2753;49.196;8.286;2023-07-13T01:03:41;22.30;68.70
5461;DHT22;2753;49.196;8.286;2023-07-13T01:06:07;22.30;68.70
5461;DHT22;2753;49.196;8.286;2023-07-13T01:08:33;22.20;68.80
5461;DHT22;2753;49.196;8.286;2023-07-13T01:10:59;22.20;68.80
5461;DHT22;2753;49.196;8.286;2023-07-13T01:13:25;22.20;68.80
5461;DHT22;2753;49.196;8.286;2023-07-13T01:15:52;22.20;68.60
5461;DHT22;2753;49.196;8.286;2023-07-13T01:18:25;22.30;68.70
5461;DHT22;2753;49.196;8.286;2023-07-13T01:23:18;22.20;68.90
5461;DHT22;2753;49.196;8.286;2023-07-13T01:25:44;22.20;69.30
5461;DHT22;2753;49.196;8.286;2023-07-13T01:28:10;22.10;69.60
5461;DHT22;2753;49.196;8.286;2023-07-13T01:30:39;22.10;69.60
5461;DHT22;2753;49.196;8.286;2023-07-13T01:33:09;22.00;69.80
5461;DHT22;2753;49.196;8.286;2023-07-13T01:35:35;22.10;70.10
5461;DHT22;2753;49.196;8.286;2023-07-13T01:38:01;22.00;70.40
5461;DHT22;2753;49.196;8.286;2023-07-13T01:40:28;22.00;70.80
5461;DHT22;2753;49.196;8.286;2023-07-13T01:42:55;21.90;71.30
5461;DHT22;2753;49.196;8.286;2023-07-13T01:45:21;21.80;71.60
5461;DHT22;2753;49.196;8.286;2023-07-13T01:47:47;21.70;71.80
5461;DHT22;2753;49.196;8.286;2023-07-13T01:50:12;21.60;72.50
5461;DHT22;2753;49.196;8.286;2023-07-13T01:52:38;21.50;72.60
5461;DHT22;2753;49.196;8.286;2023-07-13T01:55:04;21.50;72.70
5461;DHT22;2753;49.196;8.286;2023-07-13T01:57:30;21.50;72.90
5461;DHT22;2753;49.196;8.286;2023-07-13T01:59:55;21.50;73.20
5461;DHT22;2753;49.196;8.286;2023-07-13T02:02:21;21.40;73.30
5461;DHT22;2753;49.196;8.286;2023-07-13T02:04:47;21.30;73.40
5461;DHT22;2753;49.196;8.286;2023-07-13T02:07:12;21.20;73.50
5461;DHT22;2753;49.196;8.286;2023-07-13T02:09:38;21.20;73.70
5461;DHT22;2753;49.196;8.286;2023-07-13T02:12:04;21.20;73.60
5461;DHT22;2753;49.196;8.286;2023-07-13T02:14:30;21.20;73.60
5461;DHT22;2753;49.196;8.286;2023-07-13T02:16:55;21.20;73.20
5461;DHT22;2753;49.196;8.286;2023-07-13T02:19:21;21.20;73.00
5461;DHT22;2753;49.196;8.286;2023-07-13T02:21:47;21.30;72.70
5461;DHT22;2753;49.196;8.286;2023-07-13T02:24:14;21.30;72.10
5461;DHT22;2753;49.196;8.286;2023-07-13T02:26:43;21.30;71.70
5461;DHT22;2753;49.196;8.286;2023-07-13T02:29:10;21.30;71.40
5461;DHT22;2753;49.196;8.286;2023-07-13T02:31:35;21.20;71.30
5461;DHT22;2753;49.196;8.286;2023-07-13T02:34:04;21.10;71.80
5461;DHT22;2753;49.196;8.286;2023-07-13T02:36:30;21.10;71.70
5461;DHT22;2753;49.196;8.286;2023-07-13T02:38:57;21.10;71.60
5461;DHT22;2753;49.196;8.286;2023-07-13T02:41:23;21.20;71.00
5461;DHT22;2753;49.196;8.286;2023-07-13T02:43:49;21.20;70.90
5461;DHT22;2753;49.196;8.286;2023-07-13T02:46:14;21.20;70.90
5461;DHT22;2753;49.196;8.286;2023-07-13T02:48:40;21.10;70.90
5461;DHT22;2753;49.196;8.286;2023-07-13T02:51:07;21.00;71.20
5461;DHT22;2753;49.196;8.286;2023-07-13T02:53:36;20.90;71.30
5461;DHT22;2753;49.196;8.286;2023-07-13T02:56:03;20.80;71.40
5461;DHT22;2753;49.196;8.286;2023-07-13T02:58:29;20.80;71.70
5461;DHT22;2753;49.196;8.286;2023-07-13T03:00:55;20.80;71.60
5461;DHT22;2753;49.196;8.286;2023-07-13T03:03:21;20.90;71.30
5461;DHT22;2753;49.196;8.286;2023-07-13T03:05:47;20.90;71.20
5461;DHT22;2753;49.196;8.286;2023-07-13T03:08:16;20.90;71.10
5461;DHT22;2753;49.196;8.286;2023-07-13T03:10:41;20.80;70.90
5461;DHT22;2753;49.196;8.286;2023-07-13T03:13:07;20.90;71.20
5461;DHT22;2753;49.196;8.286;2023-07-13T03:15:33;20.70;73.40
5461;DHT22;2753;49.196;8.286;2023-07-13T03:17:59;20.40;74.10
5461;DHT22;2753;49.196;8.286;2023-07-13T03:20:24;20.30;74.80
5461;DHT22;2753;49.196;8.286;2023-07-13T03:22:50;20.20;75.20
5461;DHT22;2753;49.196;8.286;2023-07-13T03:25:16;20.20;74.90
5461;DHT22;2753;49.196;8.286;2023-07-13T03:27:41;20.30;74.70
5461;DHT22;2753;49.196;8.286;2023-07-13T03:30:08;20.30;74.60
5461;DHT22;2753;49.196;8.286;2023-07-13T03:32:33;20.40;74.20
5461;DHT22;2753;49.196;8.286;2023-07-13T03:34:59;20.50;74.00
5461;DHT22;2753;49.196;8.286;2023-07-13T03:37:25;20.40;74.70
5461;DHT22;2753;49.196;8.286;2023-07-13T03:39:50;20.40;73.90
5461;DHT22;2753;49.196;8.286;2023-07-13T03:42:16;20.30;73.70
5461;DHT22;2753;49.196;8.286;2023-07-13T03:44:42;20.10;73.80
5461;DHT22;2753;49.196;8.286;2023-07-13T03:47:11;20.20;73.90
5461;DHT22;2753;49.196;8.286;2023-07-13T03:49:37;20.10;73.80
5461;DHT22;2753;49.196;8.286;2023-07-13T03:52:03;20.20;73.50
5461;DHT22;2753;49.196;8.286;2023-07-13T03:54:29;20.30;73.40
5461;DHT22;2753;49.196;8.286;2023-07-13T03:56:55;20.30;73.40
5461;DHT22;2753;49.196;8.286;2023-07-13T03:59:21;20.30;73.70
5461;DHT22;2753;49.196;8.286;2023-07-13T04:01:46;20.20;74.00
5461;DHT22;2753;49.196;8.286;2023-07-13T04:04:12;20.10;74.20
5461;DHT22;2753;49.196;8.286;2023-07-13T04:06:38;20.00;74.80
5461;DHT22;2753;49.196;8.286;2023-07-13T04:09:04;20.00;74.20
5461;DHT22;2753;49.196;8.286;2023-07-13T04:11:34;19.90;75.10
5461;DHT22;2753;49.196;8.286;2023-07-13T04:14:02;19.70;75.70
5461;DHT22;2753;49.196;8.286;2023-07-13T04:16:27;19.60;75.90
5461;DHT22;2753;49.196;8.286;2023-07-13T04:18:54;19.70;75.90
5461;DHT22;2753;49.196;8.286;2023-07-13T04:21:25;19.80;75.80
5461;DHT22;2753;49.196;8.286;2023-07-13T04:23:50;19.70;76.40
5461;DHT22;2753;49.196;8.286;2023-07-13T04:26:16;19.70;76.10
5461;DHT22;2753;49.196;8.286;2023-07-13T04:28:42;19.80;76.10
5461;DHT22;2753;49.196;8.286;2023-07-13T04:31:07;19.90;75.80
5461;DHT22;2753;49.196;8.286;2023-07-13T04:33:33;19.90;76.00
5461;DHT22;2753;49.196;8.286;2023-07-13T04:35:59;19.80;76.20
5461;DHT22;2753;49.196;8.286;2023-07-13T04:38:29;19.60;76.80
5461;DHT22;2753;49.196;8.286;2023-07-13T04:40:57;19.40;77.10
5461;DHT22;2753;49.196;8.286;2023-07-13T04:43:23;19.40;77.10
5461;DHT22;2753;49.196;8.286;2023-07-13T04:45:51;19.40;77.50
5461;DHT22;2753;49.196;8.286;2023-07-13T04:48:17;19.40;77.40
5461;DHT22;2753;49.196;8.286;2023-07-13T04:50:43;19.40;77.00
5461;DHT22;2753;49.196;8.286;2023-07-13T04:53:10;19.40;77.40
5461;DHT22;2753;49.196;8.286;2023-07-13T04:55:36;19.50;77.40
5461;DHT22;2753;49.196;8.286;2023-07-13T04:58:02;19.60;76.70
5461;DHT22;2753;49.196;8.286;2023-07-13T05:00:29;19.70;76.70
5461;DHT22;2753;49.196;8.286;2023-07-13T05:02:56;19.70;77.20
5461;DHT22;2753;49.196;8.286;2023-07-13T05:05:23;19.60;77.70
5461;DHT22;2753;49.196;8.286;2023-07-13T05:07:49;19.40;78.10
5461;DHT22;2753;49.196;8.286;2023-07-13T05:10:15;19.40;78.00
5461;DHT22;2753;49.196;8.286;2023-07-13T05:12:40;19.40;79.30
5461;DHT22;2753;49.196;8.286;2023-07-13T05:15:07;19.40;78.90
5461;DHT22;2753;49.196;8.286;2023-07-13T05:17:33;19.30;79.40
5461;DHT22;2753;49.196;8.286;2023-07-13T05:19:58;19.30;79.00
5461;DHT22;2753;49.196;8.286;2023-07-13T05:22:24;19.40;79.50
5461;DHT22;2753;49.196;8.286;2023-07-13T05:24:50;19.40;79.30
5461;DHT22;2753;49.196;8.286;2023-07-13T05:27:15;19.40;79.10
5461;DHT22;2753;49.196;8.286;2023-07-13T05:29:41;19.40;79.60
5461;DHT22;2753;49.196;8.286;2023-07-13T05:32:07;19.40;79.70
5461;DHT22;2753;49.196;8.286;2023-07-13T05:34:32;19.50;79.50
5461;DHT22;2753;49.196;8.286;2023-07-13T05:36:58;19.40;79.60
5461;DHT22;2753;49.196;8.286;2023-07-13T05:39:24;19.50;79.40
5461;DHT22;2753;49.196;8.286;2023-07-13T05:41:51;19.60;79.10
5461;DHT22;2753;49.196;8.286;2023-07-13T05:44:17;19.60;78.80
5461;DHT22;2753;49.196;8.286;2023-07-13T05:46:42;19.70;78.50
5461;DHT22;2753;49.196;8.286;2023-07-13T05:49:08;19.60;78.80
5461;DHT22;2753;49.196;8.286;2023-07-13T05:51:34;19.70;78.10
5461;DHT22;2753;49.196;8.286;2023-07-13T05:53:59;19.80;79.00
5461;DHT22;2753;49.196;8.286;2023-07-13T05:56:25;19.90;78.50
5461;DHT22;2753;49.196;8.286;2023-07-13T05:58:52;19.80;78.90
5461;DHT22;2753;49.196;8.286;2023-07-13T06:01:17;19.90;78.80
5461;DHT22;2753;49.196;8.286;2023-07-13T06:03:45;19.90;78.70
5461;DHT22;2753;49.196;8.286;2023-07-13T06:06:11;19.80;78.30
5461;DHT22;2753;49.196;8.286;2023-07-13T06:08:37;19.90;79.30
5461;DHT22;2753;49.196;8.286;2023-07-13T06:11:08;20.00;78.40
5461;DHT22;2753;49.196;8.286;2023-07-13T06:13:35;20.00;78.10
5461;DHT22;2753;49.196;8.286;2023-07-13T06:16:02;20.10;78.30
5461;DHT22;2753;49.196;8.286;2023-07-13T06:18:30;20.10;77.90
5461;DHT22;2753;49.196;8.286;2023-07-13T06:20:56;20.10;77.80
5461;DHT22;2753;49.196;8.286;2023-07-13T06:23:23;20.20;77.90
5461;DHT22;2753;49.196;8.286;2023-07-13T06:25:48;20.20;77.90
5461;DHT22;2753;49.196;8.286;2023-07-13T06:28:14;20.30;77.80
5461;DHT22;2753;49.196;8.286;2023-07-13T06:30:40;20.30;77.40
5461;DHT22;2753;49.196;8.286;2023-07-13T06:33:05;20.20;77.40
5461;DHT22;2753;49.196;8.286;2023-07-13T06:35:31;20.20;77.20
5461;DHT22;2753;49.196;8.286;2023-07-13T06:37:57;20.30;77.40
5461;DHT22;2753;49.196;8.286;2023-07-13T06:40:22;20.30;76.50
5461;DHT22;2753;49.196;8.286;2023-07-13T06:42:48;20.40;76.30
5461;DHT22;2753;49.196;8.286;2023-07-13T06:45:14;20.50;75.90
5461;DHT22;2753;49.196;8.286;2023-07-13T06:47:39;20.60;75.50
5461;DHT22;2753;49.196;8.286;2023-07-13T06:50:05;20.70;74.80
5461;DHT22;2753;49.196;8.286;2023-07-13T06:52:31;20.80;74.40
5461;DHT22;2753;49.196;8.286;2023-07-13T10:16:49;26.60;56.10
5461;DHT22;2753;49.196;8.286;2023-07-13T10:19:27;26.70;56.00
5461;DHT22;2753;49.196;8.286;2023-07-13T10:21:58;26.70;55.90
5461;DHT22;2753;49.196;8.286;2023-07-13T10:24:33;26.60;55.30
5461;DHT22;2753;49.196;8.286;2023-07-13T10:27:15;26.60;55.70
5461;DHT22;2753;49.196;8.286;2023-07-13T10:30:09;26.70;54.70
5461;DHT22;2753;49.196;8.286;2023-07-13T10:32:37;26.70;53.80
5461;DHT22;2753;49.196;8.286;2023-07-13T10:35:03;26.70;54.10
5461;DHT22;2753;49.196;8.286;2023-07-13T10:37:41;26.70;54.00
5461;DHT22;2753;49.196;8.286;2023-07-13T10:40:14;26.50;54.30
5461;DHT22;2753;49.196;8.286;2023-07-13T10:42:45;26.50;54.50
5461;DHT22;2753;49.196;8.286;2023-07-13T10:45:20;26.50;54.10
5461;DHT22;2753;49.196;8.286;2023-07-13T10:47:48;26.50;53.50
5461;DHT22;2753;49.196;8.286;2023-07-13T10:50:19;26.50;52.70
5461;DHT22;2753;49.196;8.286;2023-07-13T10:52:49;26.40;52.80
5461;DHT22;2753;49.196;8.286;2023-07-13T11:01:16;26.60;53.30
5461;DHT22;2753;49.196;8.286;2023-07-13T11:04:03;26.60;53.10
5461;DHT22;2753;49.196;8.286;2023-07-13T11:09:00;26.60;52.90
5461;DHT22;2753;49.196;8.286;2023-07-13T11:11:36;26.80;53.50
5461;DHT22;2753;49.196;8.286;2023-07-13T11:14:04;26.90;51.90
5461;DHT22;2753;49.196;8.286;2023-07-13T11:16:45;26.80;51.20
5461;DHT22;2753;49.196;8.286;2023-07-13T11:22:03;26.80;51.70
5461;DHT22;2753;49.196;8.286;2023-07-13T11:24:51;26.70;51.80
5461;DHT22;2753;49.196;8.286;2023-07-13T11:28:15;26.70;52.10
5461;DHT22;2753;49.196;8.286;2023-07-13T11:33:56;26.70;52.30
5461;DHT22;2753;49.196;8.286;2023-07-13T11:36:19;26.70;52.00
5461;DHT22;2753;49.196;8.286;2023-07-13T11:41:37;26.40;51.80
5461;DHT22;2753;49.196;8.286;2023-07-13T11:44:14;26.40;52.30
5461;DHT22;2753;49.196;8.286;2023-07-13T11:46:48;26.50;52.20
5461;DHT22;2753;49.196;8.286;2023-07-13T11:49:20;26.60;52.00
5461;DHT22;2753;49.196;8.286;2023-07-13T11:51:46;26.60;51.50
5461;DHT22;2753;49.196;8.286;2023-07-13T11:54:33;26.60;51.90
5461;DHT22;2753;49.196;8.286;2023-07-13T11:57:33;26.50;51.60
5461;DHT22;2753;49.196;8.286;2023-07-13T12:00:11;26.50;52.10
5461;DHT22;2753;49.196;8.286;2023-07-13T12:02:45;26.60;51.50
5461;DHT22;2753;49.196;8.286;2023-07-13T12:05:15;26.60;51.80
5461;DHT22;2753;49.196;8.286;2023-07-13T12:07:43;26.70;51.50
5461;DHT22;2753;49.196;8.286;2023-07-13T12:13:00;26.70;51.20
5461;DHT22;2753;49.196;8.286;2023-07-13T12:15:44;26.70;51.50
5461;DHT22;2753;49.196;8.286;2023-07-13T12:18:22;26.70;51.70
5461;DHT22;2753;49.196;8.286;2023-07-13T12:20:50;26.70;51.30
5461;DHT22;2753;49.196;8.286;2023-07-13T12:23:28;26.70;50.80
5461;DHT22;2753;49.196;8.286;2023-07-13T12:25:55;26.70;51.40
5461;DHT22;2753;49.196;8.286;2023-07-13T12:28:31;26.70;51.40
5461;DHT22;2753;49.196;8.286;2023-07-13T12:31:03;26.70;51.40
5461;DHT22;2753;49.196;8.286;2023-07-13T12:33:30;26.70;51.40
5461;DHT22;2753;49.196;8.286;2023-07-13T12:36:01;26.70;51.50
5461;DHT22;2753;49.196;8.286;2023-07-13T12:38:29;26.70;51.00
5461;DHT22;2753;49.196;8.286;2023-07-13T12:40:55;26.60;51.20
5461;DHT22;2753;49.196;8.286;2023-07-13T12:43:22;26.60;50.80
5461;DHT22;2753;49.196;8.286;2023-07-13T12:48:57;26.60;51.70
5461;DHT22;2753;49.196;8.286;2023-07-13T12:51:27;26.60;50.70
5461;DHT22;2753;49.196;8.286;2023-07-13T12:54:17;26.50;50.90
5461;DHT22;2753;49.196;8.286;2023-07-13T12:56:43;26.50;51.50
5461;DHT22;2753;49.196;8.286;2023-07-13T12:59:17;26.50;51.20
5461;DHT22;2753;49.196;8.286;2023-07-13T13:01:43;26.50;51.50
5461;DHT22;2753;49.196;8.286;2023-07-13T13:04:09;26.60;51.10
5461;DHT22;2753;49.196;8.286;2023-07-13T13:06:36;26.60;51.20
5461;DHT22;2753;49.196;8.286;2023-07-13T13:09:03;26.60;51.40
5461;DHT22;2753;49.196;8.286;2023-07-13T13:11:31;26.60;51.30
5461;DHT22;2753;49.196;8.286;2023-07-13T13:13:57;26.60;51.50
5461;DHT22;2753;49.196;8.286;2023-07-13T13:16:30;26.70;51.40
5461;DHT22;2753;49.196;8.286;2023-07-13T13:19:17;26.70;51.30
5461;DHT22;2753;49.196;8.286;2023-07-13T13:21:45;26.70;51.70
5461;DHT22;2753;49.196;8.286;2023-07-13T13:24:17;26.70;51.80
5461;DHT22;2753;49.196;8.286;2023-07-13T13:26:44;26.70;51.60
5461;DHT22;2753;49.196;8.286;2023-07-13T13:29:23;26.70;51.70
5461;DHT22;2753;49.196;8.286;2023-07-13T13:31:50;26.80;51.20
5461;DHT22;2753;49.196;8.286;2023-07-13T13:34:19;26.80;51.80
5461;DHT22;2753;49.196;8.286;2023-07-13T13:36:46;26.70;52.10
5461;DHT22;2753;49.196;8.286;2023-07-13T13:39:21;26.80;52.40
5461;DHT22;2753;49.196;8.286;2023-07-13T13:41:49;26.80;52.70
5461;DHT22;2753;49.196;8.286;2023-07-13T13:44:16;26.90;52.50
5461;DHT22;2753;49.196;8.286;2023-07-13T13:46:44;26.80;52.30
5461;DHT22;2753;49.196;8.286;2023-07-13T13:49:15;26.90;52.90
5461;DHT22;2753;49.196;8.286;2023-07-13T13:51:41;26.90;52.80
5461;DHT22;2753;49.196;8.286;2023-07-13T13:54:12;26.90;52.80
5461;DHT22;2753;49.196;8.286;2023-07-13T13:56:41;26.90;52.70
5461;DHT22;2753;49.196;8.286;2023-07-13T13:59:07;26.90;52.50
5461;DHT22;2753;49.196;8.286;2023-07-13T14:01:34;26.90;52.00
5461;DHT22;2753;49.196;8.286;2023-07-13T14:04:00;26.90;51.90
5461;DHT22;2753;49.196;8.286;2023-07-13T14:06:26;26.90;51.40
5461;DHT22;2753;49.196;8.286;2023-07-13T14:08:52;26.90;51.70
5461;DHT22;2753;49.196;8.286;2023-07-13T14:11:21;26.90;51.80
5461;DHT22;2753;49.196;8.286;2023-07-13T14:13:56;26.90;51.80
5461;DHT22;2753;49.196;8.286;2023-07-13T14:16:27;26.90;51.90
5461;DHT22;2753;49.196;8.286;2023-07-13T14:18:57;26.90;52.20
5461;DHT22;2753;49.196;8.286;2023-07-13T14:21:27;26.90;52.50
5461;DHT22;2753;49.196;8.286;2023-07-13T14:23:53;26.90;52.20
5461;DHT22;2753;49.196;8.286;2023-07-13T14:26:30;26.90;53.20
5461;DHT22;2753;49.196;8.286;2023-07-13T14:28:58;26.90;51.80
5461;DHT22;2753;49.196;8.286;2023-07-13T14:31:26;26.90;51.70
5461;DHT22;2753;49.196;8.286;2023-07-13T14:33:54;26.90;51.60
5461;DHT22;2753;49.196;8.286;2023-07-13T14:36:41;26.90;51.60
5461;DHT22;2753;49.196;8.286;2023-07-13T14:39:25;27.00;52.00
5461;DHT22;2753;49.196;8.286;2023-07-13T14:41:53;27.00;51.40
5461;DHT22;2753;49.196;8.286;2023-07-13T14:44:28;27.00;51.00
5461;DHT22;2753;49.196;8.286;2023-07-13T14:46:58;27.10;51.10
5461;DHT22;2753;49.196;8.286;2023-07-13T14:49:27;27.10;51.50
5461;DHT22;2753;49.196;8.286;2023-07-13T14:51:56;27.10;51.20
5461;DHT22;2753;49.196;8.286;2023-07-13T14:54:23;27.20;51.40
5461;DHT22;2753;49.196;8.286;2023-07-13T14:56:49;27.20;51.30
5461;DHT22;2753;49.196;8.286;2023-07-13T14:59:16;27.20;51.50
5461;DHT22;2753;49.196;8.286;2023-07-13T15:01:44;27.20;51.90
5461;DHT22;2753;49.196;8.286;2023-07-13T15:04:10;27.30;52.10
5461;DHT22;2753;49.196;8.286;2023-07-13T15:06:59;27.30;51.90
5461;DHT22;2753;49.196;8.286;2023-07-13T15:09:25;27.30;51.90
5461;DHT22;2753;49.196;8.286;2023-07-13T15:11:55;27.20;51.40
5461;DHT22;2753;49.196;8.286;2023-07-13T15:14:22;27.10;51.30
5461;DHT22;2753;49.196;8.286;2023-07-13T15:16:49;27.00;51.40
5461;DHT22;2753;49.196;8.286;2023-07-13T15:19:17;27.00;51.00
5461;DHT22;2753;49.196;8.286;2023-07-13T15:21:44;27.00;50.90
5461;DHT22;2753;49.196;8.286;2023-07-13T15:24:10;27.00;50.90
5461;DHT22;2753;49.196;8.286;2023-07-13T15:26:36;27.00;51.00
5461;DHT22;2753;49.196;8.286;2023-07-13T15:29:05;27.00;51.40
5461;DHT22;2753;49.196;8.286;2023-07-13T15:31:32;27.00;51.90
5461;DHT22;2753;49.196;8.286;2023-07-13T15:33:59;27.00;51.90
5461;DHT22;2753;49.196;8.286;2023-07-13T15:36:25;27.00;52.20
5461;DHT22;2753;49.196;8.286;2023-07-13T15:38:53;27.00;52.40
5461;DHT22;2753;49.196;8.286;2023-07-13T15:41:25;27.00;52.50
5461;DHT22;2753;49.196;8.286;2023-07-13T15:43:53;27.00;52.30
5461;DHT22;2753;49.196;8.286;2023-07-13T15:46:20;27.00;51.70
5461;DHT22;2753;49.196;8.286;2023-07-13T15:48:48;27.00;52.20
5461;DHT22;2753;49.196;8.286;2023-07-13T15:51:34;27.00;52.90
5461;DHT22;2753;49.196;8.286;2023-07-13T15:54:03;27.00;52.30
5461;DHT22;2753;49.196;8.286;2023-07-13T15:56:35;27.00;52.30
5461;DHT22;2753;49.196;8.286;2023-07-13T15:59:01;26.90;52.20
5461;DHT22;2753;49.196;8.286;2023-07-13T16:01:28;26.90;52.20
5461;DHT22;2753;49.196;8.286;2023-07-13T16:03:55;26.80;52.10
5461;DHT22;2753;49.196;8.286;2023-07-13T16:06:33;26.80;52.20
5461;DHT22;2753;49.196;8.286;2023-07-13T16:09:02;26.80;52.00
5461;DHT22;2753;49.196;8.286;2023-07-13T16:11:39;26.80;52.00
5461;DHT22;2753;49.196;8.286;2023-07-13T16:14:05;26.80;52.00
5461;DHT22;2753;49.196;8.286;2023-07-13T16:16:33;26.80;52.00
5461;DHT22;2753;49.196;8.286;2023-07-13T16:19:04;26.80;52.10
5461;DHT22;2753;49.196;8.286;2023-07-13T16:21:33;26.80;52.30
5461;DHT22;2753;49.196;8.286;2023-07-13T16:24:01;26.80;52.10
5461;DHT22;2753;49.196;8.286;2023-07-13T16:26:36;26.80;52.20
5461;DHT22;2753;49.196;8.286;2023-07-13T16:31:38;26.70;52.00
5461;DHT22;2753;49.196;8.286;2023-07-13T16:34:04;26.70;52.10
5461;DHT22;2753;49.196;8.286;2023-07-13T16:36:30;26.60;52.20
5461;DHT22;2753;49.196;8.286;2023-07-13T17:15:29;26.40;52.00
5461;DHT22;2753;49.196;8.286;2023-07-13T17:17:56;26.30;51.90
5461;DHT22;2753;49.196;8.286;2023-07-13T17:20:34;26.30;52.00
5461;DHT22;2753;49.196;8.286;2023-07-13T17:23:34;26.30;52.00
5461;DHT22;2753;49.196;8.286;2023-07-13T17:26:00;26.30;51.80
5461;DHT22;2753;49.196;8.286;2023-07-13T17:28:26;26.20;51.60
5461;DHT22;2753;49.196;8.286;2023-07-13T17:30:55;26.20;51.50
5461;DHT22;2753;49.196;8.286;2023-07-13T17:33:41;26.20;51.50
5461;DHT22;2753;49.196;8.286;2023-07-13T17:36:12;26.20;51.40
5461;DHT22;2753;49.196;8.286;2023-07-13T17:38:45;26.10;51.50
5461;DHT22;2753;49.196;8.286;2023-07-13T17:41:15;26.20;51.70
5461;DHT22;2753;49.196;8.286;2023-07-13T17:43:42;26.20;51.90
5461;DHT22;2753;49.196;8.286;2023-07-13T17:46:12;26.10;51.60
5461;DHT22;2753;49.196;8.286;2023-07-13T17:48:41;26.10;51.80
5461;DHT22;2753;49.196;8.286;2023-07-13T17:51:10;26.10;51.90
5461;DHT22;2753;49.196;8.286;2023-07-13T17:53:36;26.00;51.90
5461;DHT22;2753;49.196;8.286;2023-07-13T17:56:03;26.00;52.10
5461;DHT22;2753;49.196;8.286;2023-07-13T17:58:30;26.00;52.30
5461;DHT22;2753;49.196;8.286;2023-07-13T18:00:56;26.00;52.20
5461;DHT22;2753;49.196;8.286;2023-07-13T18:03:25;26.00;52.10
5461;DHT22;2753;49.196;8.286;2023-07-13T18:05:57;26.00;52.40
5461;DHT22;2753;49.196;8.286;2023-07-13T18:08:28;26.00;52.40
5461;DHT22;2753;49.196;8.286;2023-07-13T18:11:00;25.90;52.70
5461;DHT22;2753;49.196;8.286;2023-07-13T18:13:26;25.90;53.00
5461;DHT22;2753;49.196;8.286;2023-07-13T18:15:54;25.90;53.00
5461;DHT22;2753;49.196;8.286;2023-07-13T18:18:22;25.90;53.20
5461;DHT22;2753;49.196;8.286;2023-07-13T18:20:49;25.90;53.30
5461;DHT22;2753;49.196;8.286;2023-07-13T18:23:21;25.80;53.20
5461;DHT22;2753;49.196;8.286;2023-07-13T18:25:47;25.80;53.30
5461;DHT22;2753;49.196;8.286;2023-07-13T18:28:15;25.80;53.50
5461;DHT22;2753;49.196;8.286;2023-07-13T18:30:42;25.70;53.50
5461;DHT22;2753;49.196;8.286;2023-07-13T18:35:46;25.70;53.50
5461;DHT22;2753;49.196;8.286;2023-07-13T18:38:17;25.70;53.60
5461;DHT22;2753;49.196;8.286;2023-07-13T18:40:43;25.70;53.80
5461;DHT22;2753;49.196;8.286;2023-07-13T18:43:09;25.70;54.00
5461;DHT22;2753;49.196;8.286;2023-07-13T18:45:35;25.60;54.00
5461;DHT22;2753;49.196;8.286;2023-07-13T18:48:01;25.60;54.10
5461;DHT22;2753;49.196;8.286;2023-07-13T18:50:33;25.60;54.20
5461;DHT22;2753;49.196;8.286;2023-07-13T18:53:01;25.60;54.40
5461;DHT22;2753;49.196;8.286;2023-07-13T18:55:26;25.60;54.50
5461;DHT22;2753;49.196;8.286;2023-07-13T18:57:52;25.50;54.50
5461;DHT22;2753;49.196;8.286;2023-07-13T19:00:22;25.50;54.80
5461;DHT22;2753;49.196;8.286;2023-07-13T19:02:49;25.50;54.90
5461;DHT22;2753;49.196;8.286;2023-07-13T19:05:24;25.60;55.00
5461;DHT22;2753;49.196;8.286;2023-07-13T19:07:53;25.60;55.00
5461;DHT22;2753;49.196;8.286;2023-07-13T19:10:21;25.60;55.10
5461;DHT22;2753;49.196;8.286;2023-07-13T19:12:50;25.50;55.10
5461;DHT22;2753;49.196;8.286;2023-07-13T19:15:24;25.50;55.20
5461;DHT22;2753;49.196;8.286;2023-07-13T19:17:51;25.40;55.10
5461;DHT22;2753;49.196;8.286;2023-07-13T19:20:18;25.40;55.40
5461;DHT22;2753;49.196;8.286;2023-07-13T19:22:59;25.40;55.40
5461;DHT22;2753;49.196;8.286;2023-07-13T19:25:27;25.30;55.40
5461;DHT22;2753;49.196;8.286;2023-07-13T19:28:02;25.30;55.70
5461;DHT22;2753;49.196;8.286;2023-07-13T19:30:29;25.30;55.70
5461;DHT22;2753;49.196;8.286;2023-07-13T19:32:56;25.20;55.90
5461;DHT22;2753;49.196;8.286;2023-07-13T19:35:24;25.20;56.30
5461;DHT22;2753;49.196;8.286;2023-07-13T19:37:51;25.20;56.30
5461;DHT22;2753;49.196;8.286;2023-07-13T19:40:27;25.20;56.30
5461;DHT22;2753;49.196;8.286;2023-07-13T19:42:53;25.20;56.50
5461;DHT22;2753;49.196;8.286;2023-07-13T19:45:22;25.20;56.70
5461;DHT22;2753;49.196;8.286;2023-07-13T19:47:48;25.10;57.20
5461;DHT22;2753;49.196;8.286;2023-07-13T19:50:19;25.00;57.50
5461;DHT22;2753;49.196;8.286;2023-07-13T19:52:50;24.90;57.70
5461;DHT22;2753;49.196;8.286;2023-07-13T19:55:19;24.90;57.60
5461;DHT22;2753;49.196;8.286;2023-07-13T19:57:50;24.80;57.90
5461;DHT22;2753;49.196;8.286;2023-07-13T20:00:22;24.80;58.50
5461;DHT22;2753;49.196;8.286;2023-07-13T20:02:48;24.70;58.60
5461;DHT22;2753;49.196;8.286;2023-07-13T20:05:15;24.70;58.20
5461;DHT22;2753;49.196;8.286;2023-07-13T20:07:43;24.70;58.00
5461;DHT22;2753;49.196;8.286;2023-07-13T20:10:30;24.80;58.20
5461;DHT22;2753;49.196;8.286;2023-07-13T20:12:57;24.60;58.40
5461;DHT22;2753;49.196;8.286;2023-07-13T20:15:28;24.60;58.40
5461;DHT22;2753;49.196;8.286;2023-07-13T20:17:57;24.60;58.30
5461;DHT22;2753;49.196;8.286;2023-07-13T20:20:33;24.60;58.50
5461;DHT22;2753;49.196;8.286;2023-07-13T20:23:00;24.60;58.70
5461;DHT22;2753;49.196;8.286;2023-07-13T20:25:29;24.60;58.80
5461;DHT22;2753;49.196;8.286;2023-07-13T20:27:58;24.60;58.70
5461;DHT22;2753;49.196;8.286;2023-07-13T20:30:31;24.50;59.10
5461;DHT22;2753;49.196;8.286;2023-07-13T20:33:05;24.40;59.40
5461;DHT22;2753;49.196;8.286;2023-07-13T20:35:33;24.40;59.30
5461;DHT22;2753;49.196;8.286;2023-07-13T20:38:01;24.40;59.50
5461;DHT22;2753;49.196;8.286;2023-07-13T20:40:28;24.30;59.70
5461;DHT22;2753;49.196;8.286;2023-07-13T20:42:55;24.40;59.70